Time;durP1;ratioP1;P1;durP2;ratioP2;P2;SDS_P1;SDS_P2;PMS_P1;PMS_P2;Temp;Humidity;BMP_temperature;BMP_pressure;BME280_temperature;BME280_humidity;BME280_pressure;Samples;Min_cycle;Max_cycle;Signal;HPM_P1;HPM_P2
2022/04/11 00:00:05;;;;;;;2.67;1.58;;;3.30;34.70;;;;;;5106204;27;34625;-76
2022/04/11 00:02:31;;;;;;;3.80;1.27;;;3.40;34.90;;;;;;5095686;27;36334;-76
2022/04/11 00:04:57;;;;;;;4.57;1.30;;;3.30;34.90;;;;;;5085617;28;34181;-76
2022/04/11 00:07:23;;;;;;;1.95;1.40;;;3.30;34.90;;;;;;5106053;27;34316;-76
2022/04/11 00:09:49;;;;;;;1.15;1.08;;;3.30;35.00;;;;;;5089223;27;34226;-76
2022/04/11 00:12:15;;;;;;;1.80;1.20;;;3.30;35.00;;;;;;5124195;27;34183;-76
2022/04/11 00:14:41;;;;;;;4.65;1.30;;;3.30;34.70;;;;;;5069042;28;34287;-76
2022/04/11 00:17:06;;;;;;;3.33;1.40;;;3.30;34.70;;;;;;5068537;28;34339;-76
2022/04/11 00:19:32;;;;;;;1.80;1.08;;;3.30;34.80;;;;;;5086032;28;34361;-76
2022/04/11 00:21:59;;;;;;;3.60;1.40;;;3.30;34.90;;;;;;5103446;28;34721;-75
2022/04/11 00:24:25;;;;;;;2.83;1.55;;;3.30;35.00;;;;;;5119797;27;34162;-76
2022/04/11 00:26:50;;;;;;;1.58;1.40;;;3.20;35.00;;;;;;5110748;27;34046;-76
2022/04/11 00:29:17;;;;;;;1.33;1.20;;;3.20;34.90;;;;;;5089005;27;34028;-76
2022/04/11 00:31:43;;;;;;;1.30;1.20;;;3.20;35.10;;;;;;5105645;27;36054;-76
2022/04/11 00:34:08;;;;;;;1.35;1.25;;;3.20;34.90;;;;;;5105711;27;34354;-76
2022/04/11 00:36:34;;;;;;;1.98;1.77;;;3.20;35.20;;;;;;5088800;27;34073;-76
2022/04/11 00:39:00;;;;;;;2.05;1.50;;;3.20;35.20;;;;;;5085611;28;34471;-76
2022/04/11 00:41:26;;;;;;;2.53;1.67;;;3.20;35.20;;;;;;5085232;28;35960;-76
2022/04/11 00:43:52;;;;;;;4.10;1.88;;;3.20;35.20;;;;;;5085898;28;34302;-76
2022/04/11 00:46:18;;;;;;;1.83;1.50;;;3.20;36.00;;;;;;5085607;28;34321;-76
2022/04/11 00:48:44;;;;;;;1.52;1.42;;;3.10;35.40;;;;;;5071876;28;34669;-75
2022/04/11 00:51:18;;;;;;;1.33;1.23;;;3.10;35.50;;;;;;5088681;28;36225;-75
2022/04/11 00:53:46;;;;;;;4.75;1.50;;;3.10;35.50;;;;;;5099474;27;34239;-76
2022/04/11 00:56:15;;;;;;;1.20;1.10;;;3.10;35.50;;;;;;5109433;27;34135;-76
2022/04/11 00:58:42;;;;;;;2.08;1.27;;;3.10;35.30;;;;;;5109406;27;34190;-76
2022/04/11 01:01:08;;;;;;;2.60;1.65;;;3.10;35.40;;;;;;5109025;27;35310;-76
2022/04/11 01:03:34;;;;;;;1.17;1.08;;;3.10;35.40;;;;;;5091758;27;34322;-76
2022/04/11 01:06:02;;;;;;;1.70;1.55;;;3.10;35.50;;;;;;5127403;27;33988;-76
2022/04/11 01:08:28;;;;;;;1.75;1.33;;;3.00;35.70;;;;;;5088690;28;34117;-76
2022/04/11 01:10:54;;;;;;;2.45;1.30;;;3.00;35.90;;;;;;5088188;28;35768;-76
2022/04/11 01:13:21;;;;;;;1.30;1.20;;;3.00;36.10;;;;;;5088605;28;34301;-76
2022/04/11 01:15:55;;;;;;;1.50;1.40;;;3.00;36.20;;;;;;5088464;28;34239;-76
2022/04/11 01:18:22;;;;;;;1.50;1.40;;;3.00;36.70;;;;;;5107762;27;34574;-75
2022/04/11 01:20:48;;;;;;;2.47;1.35;;;2.90;36.20;;;;;;5126941;27;34517;-76
2022/04/11 01:23:14;;;;;;;2.58;1.60;;;2.90;36.30;;;;;;5108287;27;34492;-76
2022/04/11 01:25:40;;;;;;;2.70;1.30;;;2.90;36.20;;;;;;5127266;27;34056;-76
2022/04/11 01:28:07;;;;;;;2.28;1.60;;;2.90;36.00;;;;;;5108639;27;34077;-76
2022/04/11 01:30:33;;;;;;;1.60;1.20;;;2.80;36.10;;;;;;5124829;27;34299;-75
2022/04/11 01:32:59;;;;;;;1.20;1.10;;;2.80;36.30;;;;;;5122011;27;34267;-75
2022/04/11 01:35:27;;;;;;;1.77;1.52;;;2.80;36.30;;;;;;5104733;28;34517;-76
2022/04/11 01:37:54;;;;;;;3.22;1.60;;;2.80;36.30;;;;;;5088515;28;34068;-75
2022/04/11 01:40:21;;;;;;;3.65;1.30;;;2.80;36.30;;;;;;5087837;28;35964;-75
2022/04/11 01:42:47;;;;;;;1.50;1.40;;;2.80;36.40;;;;;;5100759;27;34038;-76
2022/04/11 01:45:14;;;;;;;1.50;1.40;;;2.80;36.40;;;;;;5102978;28;34214;-75
2022/04/11 01:47:41;;;;;;;1.50;1.30;;;2.70;36.50;;;;;;5107170;27;34653;-76
2022/04/11 01:50:08;;;;;;;1.55;1.45;;;2.70;36.40;;;;;;5107985;27;35695;-76
2022/04/11 01:52:34;;;;;;;2.00;1.50;;;2.70;36.50;;;;;;5104730;28;34470;-76
2022/04/11 01:55:02;;;;;;;2.35;1.70;;;2.70;36.30;;;;;;5087927;28;34154;-76
2022/04/11 01:57:29;;;;;;;2.83;1.42;;;2.60;36.50;;;;;;5054113;27;34068;-76
2022/04/11 01:59:55;;;;;;;2.65;1.48;;;2.60;36.30;;;;;;5086728;28;35630;-75
2022/04/11 02:02:21;;;;;;;1.85;1.48;;;2.50;36.50;;;;;;5087792;28;34238;-75
2022/04/11 02:04:47;;;;;;;1.42;1.33;;;2.50;36.50;;;;;;5087722;28;34204;-75
2022/04/11 02:07:13;;;;;;;2.20;1.65;;;2.50;36.90;;;;;;5087548;28;34638;-76
2022/04/11 02:09:39;;;;;;;1.60;1.50;;;2.40;36.70;;;;;;5104210;28;35484;-75
2022/04/11 02:12:05;;;;;;;1.25;1.15;;;2.40;36.70;;;;;;5093586;27;34015;-75
2022/04/11 02:14:31;;;;;;;1.20;1.10;;;2.40;36.70;;;;;;5105841;27;34109;-76
2022/04/11 02:16:57;;;;;;;1.27;1.17;;;2.30;36.80;;;;;;5126327;27;34023;-76
2022/04/11 02:19:23;;;;;;;2.35;1.40;;;2.30;36.80;;;;;;5125738;27;34080;-76
2022/04/11 02:21:49;;;;;;;2.47;1.60;;;2.20;36.80;;;;;;5090778;27;34372;-76
2022/04/11 02:24:15;;;;;;;1.55;1.20;;;2.20;36.80;;;;;;5107184;27;34366;-75
2022/04/11 02:26:41;;;;;;;1.95;1.20;;;2.20;36.70;;;;;;5091095;27;34615;-75
2022/04/11 02:29:07;;;;;;;2.03;1.52;;;2.10;36.80;;;;;;5107372;27;35655;-75
2022/04/11 02:31:32;;;;;;;1.85;1.40;;;2.00;36.80;;;;;;5090813;27;34309;-75
2022/04/11 02:33:58;;;;;;;1.58;1.30;;;2.00;37.00;;;;;;5106872;27;34412;-75
2022/04/11 02:36:25;;;;;;;1.50;1.30;;;1.90;37.10;;;;;;5107273;27;34488;-75
2022/04/11 02:38:52;;;;;;;1.30;1.20;;;1.80;37.10;;;;;;5107365;27;35990;-75
2022/04/11 02:41:18;;;;;;;1.65;1.42;;;1.80;37.20;;;;;;5090504;27;34219;-75
2022/04/11 02:43:44;;;;;;;1.80;1.52;;;1.70;37.20;;;;;;5107443;27;34272;-75
2022/04/11 02:46:10;;;;;;;1.75;1.38;;;1.70;37.40;;;;;;5107991;27;34285;-75
2022/04/11 02:48:37;;;;;;;1.33;1.23;;;1.70;37.30;;;;;;5125669;27;34937;-75
2022/04/11 02:51:03;;;;;;;1.48;1.30;;;1.60;37.40;;;;;;5107032;27;34111;-75
2022/04/11 02:53:28;;;;;;;1.67;1.33;;;1.60;37.40;;;;;;5107366;27;34107;-75
2022/04/11 02:55:54;;;;;;;1.55;1.45;;;1.50;37.70;;;;;;5107215;27;34400;-75
2022/04/11 02:58:20;;;;;;;1.75;1.48;;;1.50;37.60;;;;;;5090016;27;35815;-76
2022/04/11 03:00:46;;;;;;;1.52;1.38;;;1.50;37.80;;;;;;5090091;27;34544;-76
2022/04/11 03:03:12;;;;;;;1.73;1.40;;;1.40;37.90;;;;;;5107102;27;34124;-76
2022/04/11 03:05:39;;;;;;;2.75;1.30;;;1.40;38.00;;;;;;5073104;27;34040;-76
2022/04/11 03:08:05;;;;;;;1.73;1.55;;;1.40;37.90;;;;;;5103186;27;35615;-76
2022/04/11 03:10:31;;;;;;;4.03;1.48;;;1.40;37.90;;;;;;5104876;28;34059;-76
2022/04/11 03:12:56;;;;;;;1.92;1.40;;;1.40;37.70;;;;;;5069805;28;34120;-76
2022/04/11 03:15:22;;;;;;;1.60;1.50;;;1.40;37.60;;;;;;5086798;28;34518;-77
2022/04/11 03:17:48;;;;;;;5.32;1.25;;;1.30;37.50;;;;;;5084971;27;35624;-76
2022/04/11 03:20:14;;;;;;;2.20;1.27;;;1.30;37.80;;;;;;5107026;27;34073;-77
2022/04/11 03:22:40;;;;;;;3.72;1.60;;;1.30;37.70;;;;;;5089686;27;34236;-77
2022/04/11 03:25:07;;;;;;;1.98;1.77;;;1.30;37.80;;;;;;5090040;27;34056;-77
2022/04/11 03:27:32;;;;;;;1.45;1.35;;;1.20;37.80;;;;;;5124838;27;35216;-77
2022/04/11 03:29:58;;;;;;;1.65;1.30;;;1.20;37.60;;;;;;5089771;27;34288;-77
2022/04/11 03:32:24;;;;;;;2.78;1.63;;;1.20;37.70;;;;;;5089197;27;34207;-77
2022/04/11 03:34:51;;;;;;;4.90;1.48;;;1.20;37.90;;;;;;5090281;27;34199;-77
2022/04/11 03:37:17;;;;;;;1.50;1.38;;;1.20;37.80;;;;;;5089388;27;36707;-77
2022/04/11 03:39:43;;;;;;;1.48;1.38;;;1.10;37.70;;;;;;5106503;27;34110;-78
2022/04/11 03:42:09;;;;;;;1.48;1.35;;;1.10;37.60;;;;;;5089380;27;34048;-78
2022/04/11 03:44:35;;;;;;;3.33;1.75;;;1.10;37.70;;;;;;5089894;27;34076;-77
2022/04/11 03:47:02;;;;;;;1.67;1.35;;;1.10;37.90;;;;;;5098581;28;35635;-78
2022/04/11 03:49:28;;;;;;;2.17;1.80;;;1.00;37.80;;;;;;5054762;28;34054;-78
2022/04/11 03:51:54;;;;;;;2.88;1.73;;;1.00;37.60;;;;;;5116903;27;34103;-78
2022/04/11 03:54:20;;;;;;;3.28;1.60;;;1.00;37.90;;;;;;5106756;28;34264;-78
2022/04/11 03:56:46;;;;;;;1.60;1.50;;;1.00;38.00;;;;;;5092497;27;36357;-78
2022/04/11 03:59:12;;;;;;;1.95;1.73;;;0.90;38.00;;;;;;5089922;27;34231;-79
2022/04/11 04:01:38;;;;;;;1.80;1.70;;;0.90;38.00;;;;;;5113623;27;34268;-79
2022/04/11 04:04:04;;;;;;;2.70;1.48;;;0.90;38.10;;;;;;5094779;28;34242;-79
2022/04/11 04:06:30;;;;;;;3.53;1.58;;;0.90;38.10;;;;;;5078104;27;35775;-79
2022/04/11 04:08:56;;;;;;;1.80;1.30;;;0.80;38.10;;;;;;5097289;27;34241;-79
2022/04/11 04:11:22;;;;;;;1.65;1.55;;;0.80;38.00;;;;;;5100248;27;34077;-79
2022/04/11 04:13:48;;;;;;;2.55;1.92;;;0.80;38.10;;;;;;5101368;28;33968;-80
2022/04/11 04:16:13;;;;;;;1.58;1.48;;;0.70;38.30;;;;;;5114698;28;34420;-80
2022/04/11 04:18:39;;;;;;;4.03;1.70;;;0.70;38.50;;;;;;5120605;27;33829;-80
2022/04/11 04:21:05;;;;;;;4.50;1.77;;;0.70;38.50;;;;;;5097680;28;34387;-80
2022/04/11 04:23:31;;;;;;;2.03;1.50;;;0.70;38.80;;;;;;5127309;27;34245;-80
2022/04/11 04:25:57;;;;;;;1.38;1.27;;;0.70;38.60;;;;;;5083255;28;35975;-80
2022/04/11 04:28:23;;;;;;;1.98;1.38;;;0.60;38.60;;;;;;5122008;27;34049;-81
2022/04/11 04:30:49;;;;;;;1.48;1.38;;;0.60;38.70;;;;;;5121807;27;33732;-80
2022/04/11 04:33:15;;;;;;;2.10;1.48;;;0.60;38.80;;;;;;5102011;28;34091;-80
2022/04/11 04:35:41;;;;;;;2.97;1.63;;;0.60;38.80;;;;;;5102453;28;36514;-81
2022/04/11 04:38:07;;;;;;;1.70;1.20;;;0.60;38.80;;;;;;5088563;27;34222;-80
2022/04/11 04:40:33;;;;;;;2.67;1.60;;;0.60;38.90;;;;;;5120856;27;34076;-81
2022/04/11 04:42:59;;;;;;;1.77;1.60;;;0.60;39.20;;;;;;5088763;27;34429;-81
2022/04/11 04:45:25;;;;;;;1.67;1.58;;;0.60;38.90;;;;;;5084151;27;35932;-81
2022/04/11 04:47:51;;;;;;;1.40;1.30;;;0.60;39.10;;;;;;5084076;28;34175;-81
2022/04/11 04:50:17;;;;;;;2.08;1.88;;;0.60;39.20;;;;;;5100372;28;34426;-81
2022/04/11 04:52:43;;;;;;;1.83;1.67;;;0.60;39.00;;;;;;5091648;27;34448;-81
2022/04/11 04:55:09;;;;;;;2.17;1.63;;;0.60;38.90;;;;;;5100242;28;36633;-82
2022/04/11 04:57:35;;;;;;;1.60;1.50;;;0.60;38.80;;;;;;5112235;27;33904;-82
2022/04/11 05:00:02;;;;;;;4.18;1.70;;;0.70;38.60;;;;;;5104548;27;33856;-82
2022/04/11 05:02:38;;;;;;;2.35;1.90;;;0.70;38.40;;;;;;5103940;28;33939;-82
2022/04/11 05:05:06;;;;;;;2.25;1.65;;;0.70;38.70;;;;;;5123977;27;36736;-82
2022/04/11 05:07:32;;;;;;;2.72;1.77;;;0.70;38.70;;;;;;5121626;27;33867;-82
2022/04/11 05:09:58;;;;;;;4.90;2.10;;;0.70;38.60;;;;;;5121173;27;34479;-82
2022/04/11 05:12:24;;;;;;;2.10;1.85;;;0.70;38.70;;;;;;5101095;28;34492;-82
2022/04/11 05:14:50;;;;;;;2.20;2.00;;;0.70;38.50;;;;;;5086750;27;35584;-82
2022/04/11 05:17:16;;;;;;;2.15;1.75;;;0.70;38.50;;;;;;5121147;27;34255;-82
2022/04/11 05:19:42;;;;;;;1.90;1.73;;;0.70;38.60;;;;;;5085582;28;34215;-82
2022/04/11 05:22:08;;;;;;;2.58;1.83;;;0.80;38.40;;;;;;5095773;27;34400;-83
2022/04/11 05:24:36;;;;;;;2.08;1.67;;;0.80;38.40;;;;;;5084611;28;34490;-82
2022/04/11 05:27:02;;;;;;;3.55;1.98;;;0.80;38.40;;;;;;5091375;27;34248;-82
2022/04/11 05:29:31;;;;;;;2.90;1.75;;;0.90;38.70;;;;;;5078522;27;34222;-82
2022/04/11 05:31:59;;;;;;;4.93;2.08;;;1.00;38.60;;;;;;5076098;28;34106;-82
2022/04/11 05:34:25;;;;;;;2.22;2.00;;;1.00;38.30;;;;;;5100333;28;35900;-82
2022/04/11 05:37:00;;;;;;;5.32;1.83;;;1.10;38.10;;;;;;5111041;27;34461;-82
2022/04/11 05:39:26;;;;;;;1.75;1.48;;;1.10;38.20;;;;;;5093380;27;34487;-82
2022/04/11 05:41:52;;;;;;;5.18;2.50;;;1.20;38.20;;;;;;5099543;27;34156;-83
2022/04/11 05:44:18;;;;;;;6.05;1.95;;;1.20;38.30;;;;;;5111958;27;36018;-82
2022/04/11 05:46:46;;;;;;;2.15;1.80;;;1.30;38.30;;;;;;5107724;27;34372;-82
2022/04/11 05:49:12;;;;;;;5.57;2.20;;;1.40;38.10;;;;;;5109595;28;34273;-82
2022/04/11 05:51:37;;;;;;;5.40;2.13;;;1.50;38.10;;;;;;5084346;27;34203;-82
2022/04/11 05:54:03;;;;;;;2.38;1.70;;;1.60;38.00;;;;;;5083955;28;35461;-82
2022/04/11 05:56:29;;;;;;;2.90;1.95;;;1.70;38.10;;;;;;5103696;27;34088;-82
2022/04/11 05:58:55;;;;;;;3.45;2.55;;;1.90;37.90;;;;;;5079651;27;34246;-82
2022/04/11 06:01:21;;;;;;;3.50;2.28;;;2.20;38.00;;;;;;5109546;27;34724;-81
2022/04/11 06:03:48;;;;;;;3.03;2.22;;;2.50;37.60;;;;;;5110414;27;35625;-84
2022/04/11 06:06:15;;;;;;;2.70;2.20;;;2.80;36.90;;;;;;5119615;27;34597;-82
2022/04/11 06:08:41;;;;;;;2.45;2.10;;;3.10;36.30;;;;;;5134687;27;33734;-80
2022/04/11 06:11:07;;;;;;;7.22;3.03;;;3.50;35.90;;;;;;5107484;27;34020;-79
2022/04/11 06:13:33;;;;;;;8.10;2.95;;;3.80;35.40;;;;;;5122106;27;35477;-79
2022/04/11 06:16:01;;;;;;;3.40;2.58;;;4.10;35.00;;;;;;5109278;27;34274;-79
2022/04/11 06:18:31;;;;;;;2.33;2.13;;;4.60;34.30;;;;;;5074323;27;34367;-79
2022/04/11 06:20:56;;;;;;;3.92;3.00;;;5.10;33.90;;;;;;5113504;27;34175;-78
2022/04/11 06:23:22;;;;;;;3.35;2.90;;;5.80;32.60;;;;;;5106092;28;35844;-78
2022/04/11 06:25:48;;;;;;;3.40;2.83;;;6.50;31.40;;;;;;5072808;28;34063;-77
2022/04/11 06:28:14;;;;;;;8.85;2.88;;;7.20;30.00;;;;;;5070846;28;34055;-78
2022/04/11 06:30:41;;;;;;;4.95;2.80;;;7.60;28.90;;;;;;5088286;27;34207;-77
2022/04/11 06:33:06;;;;;;;2.95;2.08;;;8.20;28.10;;;;;;5125394;27;34422;-77
2022/04/11 06:35:32;;;;;;;2.05;1.77;;;8.70;27.20;;;;;;5122029;27;34104;-77
2022/04/11 06:37:58;;;;;;;3.58;1.95;;;9.10;26.10;;;;;;5090097;27;34151;-76
2022/04/11 06:40:24;;;;;;;2.35;2.10;;;9.50;25.60;;;;;;5090461;27;34349;-77
2022/04/11 06:42:50;;;;;;;2.92;2.20;;;9.80;24.60;;;;;;5107019;27;35513;-76
2022/04/11 06:45:16;;;;;;;3.20;2.13;;;10.10;24.30;;;;;;5107584;27;34402;-76
2022/04/11 06:47:43;;;;;;;5.80;1.98;;;10.40;23.70;;;;;;5104125;28;34041;-76
2022/04/11 06:50:10;;;;;;;3.53;1.80;;;10.60;23.50;;;;;;5088653;27;34533;-76
2022/04/11 06:52:36;;;;;;;5.95;2.30;;;10.90;23.40;;;;;;5107176;27;35833;-76
2022/04/11 06:55:02;;;;;;;2.70;2.00;;;11.10;23.20;;;;;;5106932;27;34432;-76
2022/04/11 06:57:29;;;;;;;2.60;2.00;;;11.10;22.80;;;;;;5099397;27;34218;-76
2022/04/11 06:59:55;;;;;;;3.17;2.25;;;11.20;22.80;;;;;;5090177;28;34474;-76
2022/04/11 07:02:21;;;;;;;2.58;2.00;;;11.30;22.90;;;;;;5073194;28;36437;-76
2022/04/11 07:04:47;;;;;;;5.40;2.00;;;11.30;22.90;;;;;;5083917;27;34168;-76
2022/04/11 07:07:13;;;;;;;5.32;2.42;;;11.40;23.10;;;;;;5124091;27;34083;-76
2022/04/11 07:09:39;;;;;;;3.30;2.17;;;11.50;23.40;;;;;;5124455;27;34044;-76
2022/04/11 07:12:05;;;;;;;5.13;2.17;;;11.70;23.50;;;;;;5123616;27;36595;-76
2022/04/11 07:14:31;;;;;;;2.88;2.13;;;11.90;23.70;;;;;;5110274;27;34284;-76
2022/04/11 07:16:57;;;;;;;3.20;1.95;;;12.00;23.80;;;;;;5089787;27;34336;-76
2022/04/11 07:19:23;;;;;;;2.88;2.10;;;12.10;23.80;;;;;;5107071;27;34484;-76
2022/04/11 07:21:49;;;;;;;2.13;1.85;;;12.20;23.70;;;;;;5089690;27;35758;-76
2022/04/11 07:24:15;;;;;;;3.65;1.95;;;12.30;23.50;;;;;;5102723;27;34600;-75
2022/04/11 07:26:41;;;;;;;3.50;2.13;;;12.40;23.40;;;;;;5106442;27;34332;-76
2022/04/11 07:29:07;;;;;;;6.03;2.20;;;12.30;23.40;;;;;;5086353;28;34180;-76
2022/04/11 07:31:33;;;;;;;2.28;1.88;;;12.50;23.40;;;;;;5103084;28;36094;-75
2022/04/11 07:34:01;;;;;;;7.38;2.30;;;12.50;23.60;;;;;;5117833;27;34251;-75
2022/04/11 07:36:29;;;;;;;2.38;2.00;;;12.50;23.40;;;;;;5105651;27;34324;-75
2022/04/11 07:38:56;;;;;;;2.33;1.88;;;12.50;23.60;;;;;;5117172;27;34311;-76
2022/04/11 07:41:23;;;;;;;2.53;1.98;;;12.40;23.60;;;;;;5106168;27;34436;-75
2022/04/11 07:43:50;;;;;;;2.80;1.90;;;12.30;24.00;;;;;;5107076;27;34319;-75
2022/04/11 07:46:16;;;;;;;2.65;2.10;;;12.40;24.20;;;;;;5089335;27;34187;-75
2022/04/11 07:48:42;;;;;;;5.00;2.20;;;12.50;24.20;;;;;;5089732;27;34419;-75
2022/04/11 07:51:08;;;;;;;3.83;1.95;;;12.60;25.00;;;;;;5124652;27;34303;-76
2022/04/11 07:53:33;;;;;;;3.67;1.92;;;12.70;24.40;;;;;;5106382;27;34289;-76
2022/04/11 07:55:59;;;;;;;2.30;1.80;;;12.80;24.40;;;;;;5106369;27;34227;-76
2022/04/11 07:58:25;;;;;;;3.00;1.90;;;12.80;24.30;;;;;;5109745;27;34574;-75
2022/04/11 08:00:52;;;;;;;2.17;2.00;;;13.00;24.30;;;;;;5092421;27;36233;-75
2022/04/11 08:03:20;;;;;;;2.42;2.05;;;13.10;24.10;;;;;;5093228;27;34280;-75
2022/04/11 08:05:46;;;;;;;4.72;2.20;;;13.20;23.70;;;;;;5109730;27;34196;-76
2022/04/11 08:08:14;;;;;;;14.48;2.42;;;13.30;23.90;;;;;;5109433;27;34566;-76
2022/04/11 08:10:40;;;;;;;8.50;2.00;;;13.40;23.30;;;;;;5092445;27;35784;-75
2022/04/11 08:13:06;;;;;;;2.20;1.38;;;13.50;23.50;;;;;;5109769;27;34207;-76
2022/04/11 08:15:33;;;;;;;3.25;1.80;;;13.70;22.30;;;;;;5109404;27;34175;-76
2022/04/11 08:17:59;;;;;;;3.60;1.65;;;13.90;22.20;;;;;;5110132;27;34069;-76
2022/04/11 08:20:26;;;;;;;4.55;1.90;;;14.10;21.80;;;;;;5092201;27;36445;-76
2022/04/11 08:22:52;;;;;;;1.60;1.42;;;14.20;20.90;;;;;;5092799;27;34260;-75
2022/04/11 08:25:18;;;;;;;2.38;1.60;;;14.30;20.80;;;;;;5109526;27;34139;-77
2022/04/11 08:27:44;;;;;;;8.20;1.40;;;14.60;20.70;;;;;;5109932;27;34477;-76
2022/04/11 08:30:13;;;;;;;2.70;1.45;;;14.70;20.10;;;;;;5109084;27;34997;-76
2022/04/11 08:32:42;;;;;;;1.70;1.02;;;14.90;19.60;;;;;;5109078;27;34091;-76
2022/04/11 08:35:09;;;;;;;2.30;1.20;;;15.20;19.50;;;;;;5127587;27;34097;-76
2022/04/11 08:37:40;;;;;;;1.25;1.15;;;15.30;18.70;;;;;;5109449;27;34535;-76
2022/04/11 08:40:11;;;;;;;3.35;1.23;;;15.40;18.80;;;;;;5114239;27;34759;-76
2022/04/11 08:42:39;;;;;;;2.88;1.17;;;15.30;17.10;;;;;;5072127;28;34298;-76
2022/04/11 08:45:05;;;;;;;2.08;1.13;;;15.30;17.90;;;;;;5071754;28;34097;-76
2022/04/11 08:47:31;;;;;;;1.30;1.10;;;15.20;18.00;;;;;;5126780;27;35540;-76
2022/04/11 08:50:00;;;;;;;2.65;1.50;;;15.30;18.00;;;;;;5105929;28;35708;-76
2022/04/11 08:52:27;;;;;;;2.65;1.30;;;15.20;16.30;;;;;;5125588;27;33995;-76
2022/04/11 08:54:53;;;;;;;2.00;0.90;;;15.30;16.90;;;;;;5127622;27;34094;-77
2022/04/11 08:57:21;;;;;;;2.60;1.25;;;15.40;17.10;;;;;;5108758;27;34043;-76
2022/04/11 08:59:47;;;;;;;6.93;1.40;;;15.50;15.70;;;;;;5092419;27;35870;-76
2022/04/11 09:02:13;;;;;;;1.25;1.10;;;15.70;17.00;;;;;;5109280;27;34492;-77
2022/04/11 09:04:49;;;;;;;1.27;1.10;;;15.80;16.70;;;;;;5109587;27;34390;-76
2022/04/11 09:07:15;;;;;;;3.70;1.20;;;16.00;11.70;;;;;;5107339;27;34454;-77
2022/04/11 09:09:41;;;;;;;2.85;1.20;;;16.10;16.50;;;;;;5107601;27;35878;-76
2022/04/11 09:12:18;;;;;;;2.10;1.30;;;16.30;16.20;;;;;;5095098;27;34199;-78
2022/04/11 09:14:53;;;;;;;1.38;1.00;;;16.50;13.30;;;;;;5095558;28;34265;-76
2022/04/11 09:17:23;;;;;;;2.60;1.00;;;16.50;12.10;;;;;;5085235;27;34064;-77
2022/04/11 09:20:06;;;;;;;6.45;1.17;;;16.60;13.90;;;;;;5088189;28;36668;-76
2022/04/11 09:22:32;;;;;;;2.67;1.10;;;16.70;10.70;;;;;;5102954;27;35549;-77
2022/04/11 09:25:07;;;;;;;3.05;1.05;;;16.70;15.10;;;;;;5105308;28;34500;-77
2022/04/11 09:27:33;;;;;;;2.08;1.08;;;16.70;8.20;;;;;;5114647;27;34280;-77
2022/04/11 09:29:59;;;;;;;0.82;0.82;;;16.60;14.30;;;;;;5126158;27;34298;-76
2022/04/11 09:32:25;;;;;;;1.38;1.13;;;16.50;14.50;;;;;;5104714;27;34300;-77
2022/04/11 09:34:54;;;;;;;1.95;1.00;;;16.70;13.80;;;;;;5088302;28;34251;-76
2022/04/11 09:37:21;;;;;;;3.25;1.40;;;17.00;12.70;;;;;;5102167;27;34316;-76
2022/04/11 09:39:56;;;;;;;0.88;0.82;;;17.10;14.00;;;;;;5126644;27;34322;-76
2022/04/11 09:42:31;;;;;;;1.67;0.80;;;17.30;7.10;;;;;;5088059;28;34239;-76
2022/04/11 09:45:00;;;;;;;1.85;1.00;;;17.40;9.60;;;;;;5088108;28;34407;-76
2022/04/11 09:47:26;;;;;;;1.35;1.00;;;17.60;12.90;;;;;;5090916;27;34520;-76
2022/04/11 09:49:53;;;;;;;2.25;1.00;;;17.60;13.40;;;;;;5070957;28;35807;-77
2022/04/11 09:52:19;;;;;;;0.88;0.85;;;17.70;11.80;;;;;;5095563;28;34272;-76
2022/04/11 09:54:49;;;;;;;2.17;1.00;;;17.50;12.10;;;;;;5104637;28;34094;-76
2022/04/11 09:57:17;;;;;;;2.42;1.00;;;17.60;12.20;;;;;;5087649;28;34165;-76
2022/04/11 09:59:45;;;;;;;0.80;0.80;;;17.70;12.40;;;;;;5110089;27;34494;-76
2022/04/11 10:02:17;;;;;;;2.47;1.10;;;17.80;12.50;;;;;;5097249;27;34294;-77
2022/04/11 10:04:46;;;;;;;1.10;1.02;;;17.90;12.50;;;;;;5107928;27;34264;-76
2022/04/11 10:07:12;;;;;;;2.60;1.17;;;18.10;12.40;;;;;;5098846;27;34249;-76
2022/04/11 10:09:40;;;;;;;1.58;1.00;;;18.30;12.50;;;;;;5125861;27;34276;-76
2022/04/11 10:12:07;;;;;;;3.47;1.13;;;18.40;11.50;;;;;;5107257;27;34234;-77
2022/04/11 10:14:34;;;;;;;4.50;1.20;;;18.30;11.60;;;;;;5108165;27;34270;-76
2022/04/11 10:17:02;;;;;;;0.95;0.70;;;18.30;11.50;;;;;;5100145;28;34496;-77
2022/04/11 10:19:34;;;;;;;2.67;1.13;;;18.50;10.10;;;;;;5086421;28;35584;-76
2022/04/11 10:22:04;;;;;;;1.35;0.80;;;18.60;9.10;;;;;;5087650;28;34281;-77
2022/04/11 10:24:34;;;;;;;1.73;0.98;;;18.80;8.00;;;;;;5103907;27;34325;-77
2022/04/11 10:27:23;;;;;;;1.40;0.75;;;18.80;8.50;;;;;;5126127;27;34091;-76
2022/04/11 10:29:51;;;;;;;3.17;0.80;;;18.80;4.40;;;;;;5087049;28;36759;-76
2022/04/11 10:32:21;;;;;;;1.88;0.90;;;18.90;10.50;;;;;;5087081;28;34406;-76
2022/04/11 10:34:51;;;;;;;1.30;0.90;;;18.90;9.50;;;;;;5103132;27;34147;-76
2022/04/11 10:37:18;;;;;;;2.20;0.80;;;19.00;9.30;;;;;;5125284;27;34323;-76
2022/04/11 10:39:46;;;;;;;1.10;1.00;;;19.20;9.90;;;;;;5125592;27;35253;-76
2022/04/11 10:42:14;;;;;;;2.28;0.90;;;19.30;10.00;;;;;;5125394;27;34203;-77
2022/04/11 10:44:46;;;;;;;2.08;0.75;;;19.40;9.40;;;;;;5090348;27;34374;-77
2022/04/11 10:47:22;;;;;;;1.52;0.80;;;19.50;8.50;;;;;;5117169;27;34332;-76
2022/04/11 10:50:18;;;;;;;1.30;0.85;;;19.60;4.30;;;;;;5098714;27;34247;-76
2022/04/11 10:52:44;;;;;;;2.58;1.00;;;19.70;2.50;;;;;;5098453;27;34311;-77
2022/04/11 10:55:14;;;;;;;1.73;1.00;;;19.80;8.50;;;;;;5087555;27;34137;-77
2022/04/11 10:57:46;;;;;;;2.33;1.00;;;19.70;7.20;;;;;;5104096;27;34971;-77
2022/04/11 11:00:17;;;;;;;2.55;0.77;;;19.70;7.40;;;;;;5109299;27;35730;-77
2022/04/11 11:03:05;;;;;;;0.98;0.73;;;19.80;7.30;;;;;;5115200;27;34220;-76
2022/04/11 11:05:39;;;;;;;1.00;0.90;;;19.80;1.00;;;;;;5082084;27;34353;-77
2022/04/11 11:08:25;;;;;;;2.63;0.90;;;19.70;6.60;;;;;;5104581;27;34443;-77
2022/04/11 11:10:57;;;;;;;1.75;1.00;;;20.00;2.10;;;;;;5071871;28;36083;-77
2022/04/11 11:13:28;;;;;;;1.17;0.93;;;19.90;6.90;;;;;;5107026;27;34138;-76
2022/04/11 11:15:56;;;;;;;1.58;0.75;;;19.90;6.20;;;;;;5118075;27;34150;-76
2022/04/11 11:18:22;;;;;;;0.98;0.60;;;19.90;7.30;;;;;;5106413;27;34084;-76
2022/04/11 11:20:57;;;;;;;0.90;0.80;;;19.90;6.80;;;;;;5101918;27;36393;-77
2022/04/11 11:23:26;;;;;;;2.03;0.80;;;19.90;4.10;;;;;;5085508;27;34337;-76
2022/04/11 11:25:54;;;;;;;0.57;0.57;;;19.90;6.70;;;;;;5114027;27;34300;-76
2022/04/11 11:28:20;;;;;;;2.97;0.70;;;20.00;6.40;;;;;;5106278;27;34172;-76
2022/04/11 11:30:47;;;;;;;0.68;0.57;;;20.10;7.00;;;;;;5105474;27;35674;-76
2022/04/11 11:33:17;;;;;;;0.50;0.50;;;20.10;7.10;;;;;;5106298;27;34484;-75
2022/04/11 11:35:46;;;;;;;1.17;0.70;;;20.00;4.30;;;;;;5097080;27;34214;-76
2022/04/11 11:38:13;;;;;;;0.93;0.70;;;20.00;4.20;;;;;;5121642;27;34418;-77
2022/04/11 11:40:51;;;;;;;1.27;0.88;;;20.20;6.70;;;;;;5086043;28;35972;-76
2022/04/11 11:43:21;;;;;;;2.97;0.70;;;20.40;2.50;;;;;;5106121;27;34178;-76
2022/04/11 11:45:48;;;;;;;1.42;0.88;;;20.60;6.40;;;;;;5106113;27;34168;-77
2022/04/11 11:48:23;;;;;;;0.80;0.73;;;20.70;6.40;;;;;;5106216;27;34418;-76
2022/04/11 11:50:49;;;;;;;1.95;0.80;;;20.60;1.10;;;;;;5106457;27;35705;-76
2022/04/11 11:53:17;;;;;;;1.73;0.70;;;20.50;6.20;;;;;;5105768;27;34165;-77
2022/04/11 11:55:52;;;;;;;0.85;0.70;;;20.70;6.20;;;;;;5103375;27;34084;-76
2022/04/11 11:58:18;;;;;;;0.85;0.70;;;20.70;2.20;;;;;;5107515;27;34292;-76
2022/04/11 12:00:48;;;;;;;0.60;0.60;;;20.80;5.90;;;;;;5123903;27;34325;-76
2022/04/11 12:05:57;;;;;;;1.75;0.60;;;20.80;5.40;;;;;;5123666;27;34137;-75
2022/04/11 12:08:23;;;;;;;1.75;0.60;;;20.80;5.80;;;;;;5106095;27;34119;-74
2022/04/11 12:10:53;;;;;;;1.85;0.77;;;21.00;5.60;;;;;;5124123;27;34268;-75
2022/04/11 12:13:35;;;;;;;0.82;0.68;;;21.20;3.20;;;;;;5124221;27;34344;-75
2022/04/11 12:16:10;;;;;;;1.70;0.60;;;21.30;1.00;;;;;;5124388;27;34173;-74
2022/04/11 12:18:55;;;;;;;1.17;0.70;;;21.00;1.00;;;;;;5106065;27;34439;-75
2022/04/11 12:21:37;;;;;;;0.80;0.60;;;21.00;1.10;;;;;;5105499;27;35952;-75
2022/04/11 12:24:05;;;;;;;0.82;0.65;;;21.00;1.00;;;;;;5106831;27;34036;-75
2022/04/11 12:26:34;;;;;;;3.33;0.80;;;21.00;4.20;;;;;;5124299;27;34617;-75
2022/04/11 12:29:03;;;;;;;2.05;0.73;;;21.00;4.00;;;;;;5089207;27;34484;-75
2022/04/11 12:31:29;;;;;;;1.48;0.70;;;21.10;3.50;;;;;;5106259;27;34410;-75
2022/04/11 12:33:55;;;;;;;2.17;0.80;;;21.00;4.60;;;;;;5105579;27;34447;-75
2022/04/11 12:36:23;;;;;;;0.50;0.50;;;21.10;4.70;;;;;;5106406;27;34152;-75
2022/04/11 12:38:53;;;;;;;0.70;0.70;;;21.30;2.80;;;;;;5089014;27;34006;-75
2022/04/11 12:41:31;;;;;;;1.25;0.73;;;21.40;2.10;;;;;;5088420;27;35549;-75
2022/04/11 12:44:07;;;;;;;0.90;0.73;;;21.40;2.00;;;;;;5126263;27;34316;-75
2022/04/11 12:46:35;;;;;;;1.10;0.80;;;21.40;1.00;;;;;;5089294;27;34104;-74
2022/04/11 12:49:01;;;;;;;1.23;0.80;;;21.30;3.60;;;;;;5105534;28;34217;-76
2022/04/11 12:51:28;;;;;;;1.77;0.70;;;21.30;4.00;;;;;;5105782;27;35871;-75
2022/04/11 12:54:11;;;;;;;1.02;0.60;;;21.30;3.80;;;;;;5092426;27;34145;-76
2022/04/11 12:56:43;;;;;;;0.52;0.52;;;21.30;1.00;;;;;;5088549;28;34497;-76
2022/04/11 12:59:10;;;;;;;1.23;0.60;;;21.30;2.90;;;;;;5107129;27;34012;-76